sensor_id;sensor_type;location;lat;lon;timestamp;pressure;altitude;pressure_sealevel;temperature;humidity
72308;BME280;60257;42.638;23.376;2023-08-24T00:01:31;94768.50;;;22.25;56.05
72308;BME280;60257;42.638;23.376;2023-08-24T00:03:57;94759.38;;;22.21;56.29
72308;BME280;60257;42.638;23.376;2023-08-24T00:06:22;94763.00;;;22.18;56.43
72308;BME280;60257;42.638;23.376;2023-08-24T00:08:48;94767.78;;;22.18;56.16
72308;BME280;60257;42.638;23.376;2023-08-24T00:11:13;94759.50;;;22.11;56.42
72308;BME280;60257;42.638;23.376;2023-08-24T00:13:44;94758.72;;;22.10;56.47
72308;BME280;60257;42.638;23.376;2023-08-24T00:16:18;94760.34;;;22.08;56.82
72308;BME280;60257;42.638;23.376;2023-08-24T00:18:44;94749.59;;;22.06;57.03
72308;BME280;60257;42.638;23.376;2023-08-24T00:21:10;94753.16;;;22.07;56.74
72308;BME280;60257;42.638;23.376;2023-08-24T00:23:36;94756.41;;;22.05;56.93
72308;BME280;60257;42.638;23.376;2023-08-24T00:26:02;94751.22;;;22.04;56.43
72308;BME280;60257;42.638;23.376;2023-08-24T00:28:27;94748.44;;;22.04;56.53
72308;BME280;60257;42.638;23.376;2023-08-24T00:30:53;94749.22;;;22.04;56.66
72308;BME280;60257;42.638;23.376;2023-08-24T00:33:18;94745.25;;;22.02;56.57
72308;BME280;60257;42.638;23.376;2023-08-24T00:35:44;94747.66;;;22.00;56.92
72308;BME280;60257;42.638;23.376;2023-08-24T00:38:10;94738.16;;;21.97;56.74
72308;BME280;60257;42.638;23.376;2023-08-24T00:40:35;94742.94;;;21.97;57.04
72308;BME280;60257;42.638;23.376;2023-08-24T00:43:01;94734.94;;;21.95;57.27
72308;BME280;60257;42.638;23.376;2023-08-24T00:45:27;94743.78;;;21.90;57.18
72308;BME280;60257;42.638;23.376;2023-08-24T00:47:52;94744.19;;;21.88;57.57
72308;BME280;60257;42.638;23.376;2023-08-24T00:50:18;94736.31;;;21.80;57.31
72308;BME280;60257;42.638;23.376;2023-08-24T00:52:46;94749.47;;;21.83;56.96
72308;BME280;60257;42.638;23.376;2023-08-24T00:55:12;94755.03;;;21.83;57.43
72308;BME280;60257;42.638;23.376;2023-08-24T00:57:39;94765.41;;;21.82;57.34
72308;BME280;60257;42.638;23.376;2023-08-24T01:00:06;94755.47;;;21.81;57.37
72308;BME280;60257;42.638;23.376;2023-08-24T01:02:36;94764.63;;;21.82;57.40
72308;BME280;60257;42.638;23.376;2023-08-24T01:05:02;94768.63;;;21.81;57.32
72308;BME280;60257;42.638;23.376;2023-08-24T01:07:30;94757.88;;;21.79;57.50
72308;BME280;60257;42.638;23.376;2023-08-24T01:09:55;94764.66;;;21.78;57.87
72308;BME280;60257;42.638;23.376;2023-08-24T01:12:32;94764.28;;;21.76;58.05
72308;BME280;60257;42.638;23.376;2023-08-24T01:15:17;94762.34;;;21.73;57.60
72308;BME280;60257;42.638;23.376;2023-08-24T01:17:46;94756.75;;;21.73;57.88
72308;BME280;60257;42.638;23.376;2023-08-24T01:20:14;94756.41;;;21.68;58.10
72308;BME280;60257;42.638;23.376;2023-08-24T01:22:55;94756.47;;;21.61;58.61
72308;BME280;60257;42.638;23.376;2023-08-24T01:27:57;94764.91;;;21.57;58.67
72308;BME280;60257;42.638;23.376;2023-08-24T01:30:24;94761.41;;;21.46;59.23
72308;BME280;60257;42.638;23.376;2023-08-24T01:32:49;94756.69;;;21.39;59.41
72308;BME280;60257;42.638;23.376;2023-08-24T01:35:15;94754.75;;;21.36;59.72
72308;BME280;60257;42.638;23.376;2023-08-24T01:37:40;94755.25;;;21.28;59.95
72308;BME280;60257;42.638;23.376;2023-08-24T01:40:20;94766.50;;;21.13;60.73
72308;BME280;60257;42.638;23.376;2023-08-24T01:42:52;94763.34;;;21.08;60.95
72308;BME280;60257;42.638;23.376;2023-08-24T01:45:22;94766.19;;;21.04;60.94
72308;BME280;60257;42.638;23.376;2023-08-24T01:47:49;94762.63;;;21.00;61.24
72308;BME280;60257;42.638;23.376;2023-08-24T01:50:17;94754.69;;;20.95;61.47
72308;BME280;60257;42.638;23.376;2023-08-24T01:52:43;94761.09;;;20.92;61.67
72308;BME280;60257;42.638;23.376;2023-08-24T01:55:10;94761.13;;;20.89;61.44
72308;BME280;60257;42.638;23.376;2023-08-24T01:57:37;94756.75;;;20.88;61.59
72308;BME280;60257;42.638;23.376;2023-08-24T02:00:03;94744.44;;;20.85;61.46
72308;BME280;60257;42.638;23.376;2023-08-24T02:02:31;94745.22;;;20.86;61.37
72308;BME280;60257;42.638;23.376;2023-08-24T02:04:58;94748.84;;;20.83;61.24
72308;BME280;60257;42.638;23.376;2023-08-24T02:07:24;94752.41;;;20.83;61.43
72308;BME280;60257;42.638;23.376;2023-08-24T02:09:49;94742.53;;;20.75;61.54
72308;BME280;60257;42.638;23.376;2023-08-24T02:12:15;94760.00;;;20.79;61.46
72308;BME280;60257;42.638;23.376;2023-08-24T02:14:40;94757.63;;;20.78;61.58
72308;BME280;60257;42.638;23.376;2023-08-24T02:17:06;94753.69;;;20.75;61.81
72308;BME280;60257;42.638;23.376;2023-08-24T02:19:31;94759.72;;;20.66;62.29
72308;BME280;60257;42.638;23.376;2023-08-24T02:21:57;94771.22;;;20.68;61.71
72308;BME280;60257;42.638;23.376;2023-08-24T02:24:22;94772.41;;;20.67;61.80
72308;BME280;60257;42.638;23.376;2023-08-24T02:26:48;94769.63;;;20.67;62.08
72308;BME280;60257;42.638;23.376;2023-08-24T02:29:13;94763.66;;;20.69;61.69
72308;BME280;60257;42.638;23.376;2023-08-24T02:31:39;94770.03;;;20.69;61.88
72308;BME280;60257;42.638;23.376;2023-08-24T02:34:06;94776.00;;;20.68;61.58
72308;BME280;60257;42.638;23.376;2023-08-24T02:36:31;94783.16;;;20.69;61.74
72308;BME280;60257;42.638;23.376;2023-08-24T02:38:59;94775.22;;;20.67;61.76
72308;BME280;60257;42.638;23.376;2023-08-24T02:41:25;94780.78;;;20.67;61.64
72308;BME280;60257;42.638;23.376;2023-08-24T02:43:50;94771.69;;;20.60;61.93
72308;BME280;60257;42.638;23.376;2023-08-24T02:46:16;94768.09;;;20.63;61.78
72308;BME280;60257;42.638;23.376;2023-08-24T02:48:42;94765.31;;;20.63;61.97
72308;BME280;60257;42.638;23.376;2023-08-24T02:51:08;94766.50;;;20.62;62.09
72308;BME280;60257;42.638;23.376;2023-08-24T02:53:33;94758.53;;;20.60;61.92
72308;BME280;60257;42.638;23.376;2023-08-24T02:55:59;94755.41;;;20.58;62.00
72308;BME280;60257;42.638;23.376;2023-08-24T02:58:25;94739.09;;;20.53;62.49
72308;BME280;60257;42.638;23.376;2023-08-24T03:00:51;94742.69;;;20.54;62.35
72308;BME280;60257;42.638;23.376;2023-08-24T03:03:16;94742.69;;;20.54;63.07
72308;BME280;60257;42.638;23.376;2023-08-24T03:05:59;94741.09;;;20.53;63.57
72308;BME280;60257;42.638;23.376;2023-08-24T03:08:25;94744.66;;;20.53;63.67
72308;BME280;60257;42.638;23.376;2023-08-24T03:10:51;94753.88;;;20.47;63.38
72308;BME280;60257;42.638;23.376;2023-08-24T03:13:16;94749.50;;;20.46;63.43
72308;BME280;60257;42.638;23.376;2023-08-24T03:15:42;94756.31;;;20.41;63.51
72308;BME280;60257;42.638;23.376;2023-08-24T03:18:11;94753.13;;;20.39;63.29
72308;BME280;60257;42.638;23.376;2023-08-24T03:20:37;94755.56;;;20.33;63.46
72308;BME280;60257;42.638;23.376;2023-08-24T03:23:02;94755.56;;;20.26;63.23
72308;BME280;60257;42.638;23.376;2023-08-24T03:25:28;94759.59;;;20.15;63.46
72308;BME280;60257;42.638;23.376;2023-08-24T03:27:54;94764.41;;;20.11;63.53
72308;BME280;60257;42.638;23.376;2023-08-24T03:30:20;94761.25;;;20.05;63.59
72308;BME280;60257;42.638;23.376;2023-08-24T03:32:46;94774.78;;;20.03;63.54
72308;BME280;60257;42.638;23.376;2023-08-24T03:35:11;94776.78;;;19.99;63.85
72308;BME280;60257;42.638;23.376;2023-08-24T03:37:37;94778.78;;;19.95;63.91
72308;BME280;60257;42.638;23.376;2023-08-24T03:40:03;94796.28;;;19.95;63.91
72308;BME280;60257;42.638;23.376;2023-08-24T03:42:29;94799.47;;;19.94;63.90
72308;BME280;60257;42.638;23.376;2023-08-24T03:44:54;94808.25;;;19.89;64.02
72308;BME280;60257;42.638;23.376;2023-08-24T03:47:20;94807.84;;;19.87;65.32
72308;BME280;60257;42.638;23.376;2023-08-24T03:49:45;94804.63;;;19.92;65.33
72308;BME280;60257;42.638;23.376;2023-08-24T03:52:12;94804.25;;;19.93;65.17
72308;BME280;60257;42.638;23.376;2023-08-24T03:54:37;94818.94;;;19.94;66.85
72308;BME280;60257;42.638;23.376;2023-08-24T03:57:03;94816.97;;;19.94;66.83
72308;BME280;60257;42.638;23.376;2023-08-24T03:59:28;94828.88;;;19.98;66.69
72308;BME280;60257;42.638;23.376;2023-08-24T04:01:53;94814.56;;;20.04;67.59
72308;BME280;60257;42.638;23.376;2023-08-24T04:04:19;94823.25;;;20.09;68.08
72308;BME280;60257;42.638;23.376;2023-08-24T04:06:45;94822.06;;;20.10;67.50
72308;BME280;60257;42.638;23.376;2023-08-24T04:09:10;94820.47;;;20.09;68.00
72308;BME280;60257;42.638;23.376;2023-08-24T04:11:36;94825.66;;;20.11;68.24
72308;BME280;60257;42.638;23.376;2023-08-24T04:14:01;94811.34;;;20.12;68.45
72308;BME280;60257;42.638;23.376;2023-08-24T04:16:27;94805.72;;;20.16;68.38
72308;BME280;60257;42.638;23.376;2023-08-24T04:18:52;94802.94;;;20.16;68.56
72308;BME280;60257;42.638;23.376;2023-08-24T04:21:18;94806.13;;;20.18;68.75
72308;BME280;60257;42.638;23.376;2023-08-24T04:23:43;94802.53;;;20.21;68.98
72308;BME280;60257;42.638;23.376;2023-08-24T04:26:13;94799.75;;;20.21;69.08
72308;BME280;60257;42.638;23.376;2023-08-24T04:28:39;94800.13;;;20.23;69.17
72308;BME280;60257;42.638;23.376;2023-08-24T04:31:04;94800.91;;;20.27;69.35
72308;BME280;60257;42.638;23.376;2023-08-24T04:33:30;94806.84;;;20.32;69.37
72308;BME280;60257;42.638;23.376;2023-08-24T04:35:55;94790.56;;;20.27;68.09
72308;BME280;60257;42.638;23.376;2023-08-24T04:38:21;94799.72;;;20.28;66.96
72308;BME280;60257;42.638;23.376;2023-08-24T04:40:51;94807.28;;;20.27;67.19
72308;BME280;60257;42.638;23.376;2023-08-24T04:43:17;94817.63;;;20.27;66.67
72308;BME280;60257;42.638;23.376;2023-08-24T04:45:46;94820.47;;;20.13;66.09
72308;BME280;60257;42.638;23.376;2023-08-24T04:48:12;94816.09;;;20.12;65.44
72308;BME280;60257;42.638;23.376;2023-08-24T04:50:37;94814.50;;;20.11;65.09
72308;BME280;60257;42.638;23.376;2023-08-24T04:53:03;94820.84;;;20.15;64.76
72308;BME280;60257;42.638;23.376;2023-08-24T04:55:28;94813.69;;;20.14;64.65
72308;BME280;60257;42.638;23.376;2023-08-24T04:57:54;94824.03;;;20.17;64.73
72308;BME280;60257;42.638;23.376;2023-08-24T05:00:20;94812.50;;;20.18;64.31
72308;BME280;60257;42.638;23.376;2023-08-24T05:02:45;94813.69;;;20.21;64.42
72308;BME280;60257;42.638;23.376;2023-08-24T05:05:11;94819.22;;;20.24;64.07
72308;BME280;60257;42.638;23.376;2023-08-24T05:07:40;94814.41;;;20.32;63.61
72308;BME280;60257;42.638;23.376;2023-08-24T05:10:07;94818.78;;;20.40;63.59
72308;BME280;60257;42.638;23.376;2023-08-24T05:12:33;94812.34;;;20.50;63.46
72308;BME280;60257;42.638;23.376;2023-08-24T05:15:04;94817.06;;;20.64;63.76
72308;BME280;60257;42.638;23.376;2023-08-24T05:17:30;94824.16;;;20.68;64.15
72308;BME280;60257;42.638;23.376;2023-08-24T05:19:58;94811.81;;;20.69;64.53
72308;BME280;60257;42.638;23.376;2023-08-24T05:22:23;94817.69;;;20.89;62.88
72308;BME280;60257;42.638;23.376;2023-08-24T05:24:49;94825.13;;;21.03;61.88
72308;BME280;60257;42.638;23.376;2023-08-24T05:27:14;94817.06;;;21.16;61.26
72308;BME280;60257;42.638;23.376;2023-08-24T05:29:41;94820.19;;;21.28;60.84
72308;BME280;60257;42.638;23.376;2023-08-24T05:32:07;94820.13;;;21.35;60.68
72308;BME280;60257;42.638;23.376;2023-08-24T05:34:32;94814.88;;;21.44;60.67
72308;BME280;60257;42.638;23.376;2023-08-24T05:36:58;94823.56;;;21.50;60.65
72308;BME280;60257;42.638;23.376;2023-08-24T05:39:23;94829.81;;;21.61;60.31
72308;BME280;60257;42.638;23.376;2023-08-24T05:41:53;94830.94;;;21.71;60.19
72308;BME280;60257;42.638;23.376;2023-08-24T05:44:19;94833.22;;;21.83;60.10
72308;BME280;60257;42.638;23.376;2023-08-24T05:46:46;94829.50;;;21.97;59.85
72308;BME280;60257;42.638;23.376;2023-08-24T05:49:11;94833.31;;;22.10;59.55
72308;BME280;60257;42.638;23.376;2023-08-24T05:51:37;94841.13;;;22.25;59.63
72308;BME280;60257;42.638;23.376;2023-08-24T05:54:02;94845.44;;;22.30;59.18
72308;BME280;60257;42.638;23.376;2023-08-24T05:56:28;94845.69;;;22.09;60.63
72308;BME280;60257;42.638;23.376;2023-08-24T05:58:54;94843.69;;;21.72;63.46
72308;BME280;60257;42.638;23.376;2023-08-24T06:01:20;94832.97;;;21.67;63.90
72308;BME280;60257;42.638;23.376;2023-08-24T06:03:46;94850.13;;;21.65;64.28
72308;BME280;60257;42.638;23.376;2023-08-24T06:06:11;94846.78;;;21.81;63.95
72308;BME280;60257;42.638;23.376;2023-08-24T06:08:37;94853.47;;;21.91;63.55
72308;BME280;60257;42.638;23.376;2023-08-24T06:11:02;94856.34;;;22.21;62.51
72308;BME280;60257;42.638;23.376;2023-08-24T06:13:28;94841.69;;;22.44;61.94
72308;BME280;60257;42.638;23.376;2023-08-24T06:15:53;94850.59;;;22.65;60.93
72308;BME280;60257;42.638;23.376;2023-08-24T06:18:19;94842.31;;;22.89;60.88
72308;BME280;60257;42.638;23.376;2023-08-24T06:20:45;94852.25;;;23.17;59.23
72308;BME280;60257;42.638;23.376;2023-08-24T06:23:11;94860.06;;;23.29;58.18
72308;BME280;60257;42.638;23.376;2023-08-24T06:25:38;94849.81;;;23.46;57.46
72308;BME280;60257;42.638;23.376;2023-08-24T06:28:04;94852.03;;;23.58;57.40
72308;BME280;60257;42.638;23.376;2023-08-24T06:30:30;94850.81;;;23.59;56.77
72308;BME280;60257;42.638;23.376;2023-08-24T06:33:03;94853.19;;;23.60;57.03
72308;BME280;60257;42.638;23.376;2023-08-24T06:35:29;94855.66;;;23.55;57.20
72308;BME280;60257;42.638;23.376;2023-08-24T06:37:54;94851.97;;;23.61;57.57
72308;BME280;60257;42.638;23.376;2023-08-24T06:40:20;94850.22;;;23.44;58.71
72308;BME280;60257;42.638;23.376;2023-08-24T06:42:45;94852.31;;;23.63;58.36
72308;BME280;60257;42.638;23.376;2023-08-24T06:45:11;94860.53;;;23.74;57.75
72308;BME280;60257;42.638;23.376;2023-08-24T06:47:37;94856.03;;;23.80;58.24
72308;BME280;60257;42.638;23.376;2023-08-24T06:50:03;94848.53;;;23.97;57.87
72308;BME280;60257;42.638;23.376;2023-08-24T06:52:28;94841.94;;;24.07;57.37
72308;BME280;60257;42.638;23.376;2023-08-24T06:54:54;94849.66;;;24.23;56.72
72308;BME280;60257;42.638;23.376;2023-08-24T06:57:21;94852.59;;;24.35;56.29
72308;BME280;60257;42.638;23.376;2023-08-24T06:59:47;94849.44;;;24.33;55.97
72308;BME280;60257;42.638;23.376;2023-08-24T07:02:15;94856.66;;;24.11;55.88
72308;BME280;60257;42.638;23.376;2023-08-24T07:04:43;94851.97;;;24.04;56.79
72308;BME280;60257;42.638;23.376;2023-08-24T07:07:09;94845.63;;;24.00;56.51
72308;BME280;60257;42.638;23.376;2023-08-24T07:09:35;94850.13;;;24.17;56.64
72308;BME280;60257;42.638;23.376;2023-08-24T07:12:02;94841.91;;;24.30;56.03
72308;BME280;60257;42.638;23.376;2023-08-24T07:14:27;94846.53;;;24.17;56.26
72308;BME280;60257;42.638;23.376;2023-08-24T07:16:53;94848.41;;;24.24;55.95
72308;BME280;60257;42.638;23.376;2023-08-24T07:19:18;94839.75;;;24.38;56.06
72308;BME280;60257;42.638;23.376;2023-08-24T07:21:43;94843.06;;;24.52;56.00
72308;BME280;60257;42.638;23.376;2023-08-24T07:24:09;94837.84;;;24.71;55.62
72308;BME280;60257;42.638;23.376;2023-08-24T07:26:34;94830.63;;;24.89;54.77
72308;BME280;60257;42.638;23.376;2023-08-24T07:29:00;94830.84;;;24.79;54.32
72308;BME280;60257;42.638;23.376;2023-08-24T07:31:25;94832.16;;;25.10;53.70
72308;BME280;60257;42.638;23.376;2023-08-24T07:33:51;94825.09;;;25.22;52.74
72308;BME280;60257;42.638;23.376;2023-08-24T07:36:16;94829.38;;;25.43;51.65
72308;BME280;60257;42.638;23.376;2023-08-24T07:38:42;94826.81;;;25.48;51.93
72308;BME280;60257;42.638;23.376;2023-08-24T07:41:08;94827.75;;;25.61;51.68
72308;BME280;60257;42.638;23.376;2023-08-24T07:43:34;94825.88;;;25.39;50.47
72308;BME280;60257;42.638;23.376;2023-08-24T07:46:00;94829.56;;;25.52;51.05
72308;BME280;60257;42.638;23.376;2023-08-24T07:48:25;94830.88;;;25.63;50.58
72308;BME280;60257;42.638;23.376;2023-08-24T07:50:51;94827.28;;;25.63;50.93
72308;BME280;60257;42.638;23.376;2023-08-24T07:53:16;94823.59;;;25.66;50.53
72308;BME280;60257;42.638;23.376;2023-08-24T07:55:42;94828.34;;;25.69;51.02
72308;BME280;60257;42.638;23.376;2023-08-24T07:58:08;94827.09;;;25.38;51.76
72308;BME280;60257;42.638;23.376;2023-08-24T08:00:34;94827.63;;;25.49;51.36
72308;BME280;60257;42.638;23.376;2023-08-24T08:03:00;94819.47;;;25.38;51.67
72308;BME280;60257;42.638;23.376;2023-08-24T08:05:25;94826.84;;;25.64;50.73
72308;BME280;60257;42.638;23.376;2023-08-24T08:07:52;94824.91;;;25.78;50.74
72308;BME280;60257;42.638;23.376;2023-08-24T08:10:17;94822.09;;;25.94;50.08
72308;BME280;60257;42.638;23.376;2023-08-24T08:12:45;94825.19;;;26.12;50.27
72308;BME280;60257;42.638;23.376;2023-08-24T08:15:11;94828.41;;;26.27;49.29
72308;BME280;60257;42.638;23.376;2023-08-24T08:17:36;94829.59;;;26.42;47.96
72308;BME280;60257;42.638;23.376;2023-08-24T08:20:02;94822.09;;;26.52;47.31
72308;BME280;60257;42.638;23.376;2023-08-24T08:22:28;94832.56;;;26.64;46.82
72308;BME280;60257;42.638;23.376;2023-08-24T08:24:54;94828.22;;;26.75;46.22
72308;BME280;60257;42.638;23.376;2023-08-24T08:27:20;94825.19;;;26.82;46.40
72308;BME280;60257;42.638;23.376;2023-08-24T08:29:46;94823.31;;;26.92;46.66
72308;BME280;60257;42.638;23.376;2023-08-24T08:32:12;94820.28;;;26.99;46.01
72308;BME280;60257;42.638;23.376;2023-08-24T08:34:38;94815.22;;;26.94;45.79
72308;BME280;60257;42.638;23.376;2023-08-24T08:37:03;94813.03;;;26.86;46.69
72308;BME280;60257;42.638;23.376;2023-08-24T08:39:29;94809.03;;;26.99;45.94
72308;BME280;60257;42.638;23.376;2023-08-24T08:41:54;94804.41;;;27.05;45.48
72308;BME280;60257;42.638;23.376;2023-08-24T08:44:21;94804.19;;;27.00;45.50
72308;BME280;60257;42.638;23.376;2023-08-24T08:46:49;94796.97;;;26.99;45.51
72308;BME280;60257;42.638;23.376;2023-08-24T08:49:16;94799.91;;;27.20;45.71
72308;BME280;60257;42.638;23.376;2023-08-24T08:51:41;94798.97;;;27.36;44.74
72308;BME280;60257;42.638;23.376;2023-08-24T08:54:08;94794.38;;;27.55;44.39
72308;BME280;60257;42.638;23.376;2023-08-24T08:56:33;94798.06;;;27.65;43.64
72308;BME280;60257;42.638;23.376;2023-08-24T08:58:59;94794.13;;;27.62;44.20
72308;BME280;60257;42.638;23.376;2023-08-24T09:01:26;94789.00;;;27.82;43.25
72308;BME280;60257;42.638;23.376;2023-08-24T09:03:52;94778.25;;;27.90;43.59
72308;BME280;60257;42.638;23.376;2023-08-24T09:06:19;94782.28;;;28.02;43.05
72308;BME280;60257;42.638;23.376;2023-08-24T09:08:45;94777.38;;;28.15;41.99
72308;BME280;60257;42.638;23.376;2023-08-24T09:11:11;94779.78;;;28.16;41.89
72308;BME280;60257;42.638;23.376;2023-08-24T09:13:36;94774.66;;;28.24;41.57
72308;BME280;60257;42.638;23.376;2023-08-24T09:16:06;94770.41;;;28.41;41.29
72308;BME280;60257;42.638;23.376;2023-08-24T09:18:39;94766.19;;;28.46;40.79
72308;BME280;60257;42.638;23.376;2023-08-24T09:21:15;94764.34;;;28.52;40.65
72308;BME280;60257;42.638;23.376;2023-08-24T09:23:45;94756.38;;;28.59;41.01
72308;BME280;60257;42.638;23.376;2023-08-24T09:26:27;94747.91;;;28.59;41.33
72308;BME280;60257;42.638;23.376;2023-08-24T09:28:53;94752.84;;;28.68;40.48
72308;BME280;60257;42.638;23.376;2023-08-24T09:31:18;94750.81;;;28.68;40.48
72308;BME280;60257;42.638;23.376;2023-08-24T09:33:43;94751.25;;;28.67;40.71
72308;BME280;60257;42.638;23.376;2023-08-24T09:36:13;94741.47;;;28.81;40.76
72308;BME280;60257;42.638;23.376;2023-08-24T09:38:46;94727.41;;;28.90;40.69
72308;BME280;60257;42.638;23.376;2023-08-24T09:41:11;94734.66;;;29.00;39.96
72308;BME280;60257;42.638;23.376;2023-08-24T09:43:37;94723.69;;;29.02;41.23
72308;BME280;60257;42.638;23.376;2023-08-24T09:46:02;94727.03;;;29.09;39.66
72308;BME280;60257;42.638;23.376;2023-08-24T09:48:30;94716.91;;;28.90;40.04
72308;BME280;60257;42.638;23.376;2023-08-24T09:50:56;94720.59;;;29.09;40.63
72308;BME280;60257;42.638;23.376;2023-08-24T09:53:23;94717.31;;;29.20;40.06
72308;BME280;60257;42.638;23.376;2023-08-24T09:55:54;94720.03;;;29.32;39.84
72308;BME280;60257;42.638;23.376;2023-08-24T09:58:22;94709.25;;;29.40;39.39
72308;BME280;60257;42.638;23.376;2023-08-24T10:00:49;94710.03;;;29.50;39.12
72308;BME280;60257;42.638;23.376;2023-08-24T10:03:20;94709.38;;;29.36;37.99
72308;BME280;60257;42.638;23.376;2023-08-24T10:05:56;94704.06;;;29.48;38.41
72308;BME280;60257;42.638;23.376;2023-08-24T10:08:43;94706.75;;;29.69;37.80
72308;BME280;60257;42.638;23.376;2023-08-24T10:11:10;94700.31;;;29.60;38.39
72308;BME280;60257;42.638;23.376;2023-08-24T10:13:58;94704.41;;;29.86;40.23
72308;BME280;60257;42.638;23.376;2023-08-24T10:16:27;94695.78;;;29.99;39.38
72308;BME280;60257;42.638;23.376;2023-08-24T10:18:54;94706.91;;;30.30;37.96
72308;BME280;60257;42.638;23.376;2023-08-24T10:21:23;94706.75;;;30.33;36.71
72308;BME280;60257;42.638;23.376;2023-08-24T10:23:51;94689.22;;;30.71;35.46
72308;BME280;60257;42.638;23.376;2023-08-24T10:26:17;94688.53;;;30.85;35.71
72308;BME280;60257;42.638;23.376;2023-08-24T10:28:44;94686.41;;;30.71;34.43
72308;BME280;60257;42.638;23.376;2023-08-24T10:31:11;94690.53;;;30.52;34.54
72308;BME280;60257;42.638;23.376;2023-08-24T10:33:37;94686.09;;;31.02;34.67
72308;BME280;60257;42.638;23.376;2023-08-24T10:36:06;94681.38;;;31.08;34.96
72308;BME280;60257;42.638;23.376;2023-08-24T10:38:35;94685.03;;;30.90;33.40
72308;BME280;60257;42.638;23.376;2023-08-24T10:41:05;94678.19;;;31.15;32.36
72308;BME280;60257;42.638;23.376;2023-08-24T10:43:40;94678.63;;;31.47;32.54
72308;BME280;60257;42.638;23.376;2023-08-24T10:46:15;94668.75;;;31.42;32.51
72308;BME280;60257;42.638;23.376;2023-08-24T10:53:47;94674.59;;;31.39;32.50
72308;BME280;60257;42.638;23.376;2023-08-24T10:56:15;94680.63;;;31.55;32.43
72308;BME280;60257;42.638;23.376;2023-08-24T10:58:41;94670.47;;;31.87;31.81
72308;BME280;60257;42.638;23.376;2023-08-24T11:01:18;94664.47;;;32.09;31.89
72308;BME280;60257;42.638;23.376;2023-08-24T11:04:10;94662.53;;;32.15;32.30
72308;BME280;60257;42.638;23.376;2023-08-24T11:06:59;94650.09;;;32.13;32.22
72308;BME280;60257;42.638;23.376;2023-08-24T11:09:45;94660.91;;;31.99;32.27
72308;BME280;60257;42.638;23.376;2023-08-24T11:12:12;94656.59;;;31.75;33.62
72308;BME280;60257;42.638;23.376;2023-08-24T11:14:49;94663.44;;;31.59;34.68
72308;BME280;60257;42.638;23.376;2023-08-24T11:17:20;94658.78;;;31.47;34.31
72308;BME280;60257;42.638;23.376;2023-08-24T11:19:50;94654.88;;;31.20;35.59
72308;BME280;60257;42.638;23.376;2023-08-24T11:22:17;94646.38;;;30.87;36.44
72308;BME280;60257;42.638;23.376;2023-08-24T11:24:42;94646.00;;;30.62;37.28
72308;BME280;60257;42.638;23.376;2023-08-24T11:27:09;94651.28;;;30.78;37.10
72308;BME280;60257;42.638;23.376;2023-08-24T11:29:34;94648.59;;;30.83;36.75
72308;BME280;60257;42.638;23.376;2023-08-24T11:32:00;94666.72;;;30.77;37.29
72308;BME280;60257;42.638;23.376;2023-08-24T11:34:25;94669.22;;;30.23;38.22
72308;BME280;60257;42.638;23.376;2023-08-24T11:36:51;94667.03;;;30.18;38.25
72308;BME280;60257;42.638;23.376;2023-08-24T11:39:22;94667.97;;;30.06;38.94
72308;BME280;60257;42.638;23.376;2023-08-24T11:42:04;94665.47;;;29.81;39.65
72308;BME280;60257;42.638;23.376;2023-08-24T11:44:49;94665.94;;;29.79;39.50
72308;BME280;60257;42.638;23.376;2023-08-24T11:47:15;94665.59;;;29.59;40.51
72308;BME280;60257;42.638;23.376;2023-08-24T11:49:41;94659.31;;;29.37;41.04
72308;BME280;60257;42.638;23.376;2023-08-24T11:52:08;94652.69;;;29.31;41.14
72308;BME280;60257;42.638;23.376;2023-08-24T11:54:34;94655.97;;;29.20;41.18
72308;BME280;60257;42.638;23.376;2023-08-24T11:56:59;94649.53;;;29.11;42.06
72308;BME280;60257;42.638;23.376;2023-08-24T11:59:25;94649.81;;;29.13;42.14
72308;BME280;60257;42.638;23.376;2023-08-24T12:01:51;94652.34;;;29.11;42.00
72308;BME280;60257;42.638;23.376;2023-08-24T12:04:20;94648.56;;;29.04;42.10
72308;BME280;60257;42.638;23.376;2023-08-24T12:06:46;94648.56;;;28.95;42.19
72308;BME280;60257;42.638;23.376;2023-08-24T12:09:11;94642.72;;;28.90;42.48
72308;BME280;60257;42.638;23.376;2023-08-24T12:11:37;94637.03;;;28.81;42.96
72308;BME280;60257;42.638;23.376;2023-08-24T12:14:04;94628.28;;;28.48;42.50
72308;BME280;60257;42.638;23.376;2023-08-24T12:16:32;94624.88;;;28.22;43.37
72308;BME280;60257;42.638;23.376;2023-08-24T12:18:59;94635.41;;;28.30;43.50
72308;BME280;60257;42.638;23.376;2023-08-24T12:21:25;94628.53;;;28.31;43.92
72308;BME280;60257;42.638;23.376;2023-08-24T12:23:59;94638.09;;;28.34;43.85
72308;BME280;60257;42.638;23.376;2023-08-24T12:26:26;94639.03;;;28.31;44.16
72308;BME280;60257;42.638;23.376;2023-08-24T12:28:52;94648.31;;;28.41;43.59
72308;BME280;60257;42.638;23.376;2023-08-24T12:31:26;94652.22;;;28.43;43.18
72308;BME280;60257;42.638;23.376;2023-08-24T12:34:07;94655.88;;;28.53;43.18
72308;BME280;60257;42.638;23.376;2023-08-24T12:36:38;94654.34;;;28.61;43.00
72308;BME280;60257;42.638;23.376;2023-08-24T12:39:05;94656.56;;;28.66;42.62
72308;BME280;60257;42.638;23.376;2023-08-24T12:41:32;94659.31;;;28.79;42.33
72308;BME280;60257;42.638;23.376;2023-08-24T12:43:57;94652.59;;;28.85;42.29
72308;BME280;60257;42.638;23.376;2023-08-24T12:46:24;94653.41;;;29.04;42.54
72308;BME280;60257;42.638;23.376;2023-08-24T12:48:50;94650.47;;;29.17;42.71
72308;BME280;60257;42.638;23.376;2023-08-24T12:51:16;94653.03;;;29.33;42.32
72308;BME280;60257;42.638;23.376;2023-08-24T12:53:42;94661.22;;;29.40;42.03
72308;BME280;60257;42.638;23.376;2023-08-24T12:56:07;94670.00;;;29.51;41.73
72308;BME280;60257;42.638;23.376;2023-08-24T12:58:33;94669.22;;;29.60;41.75